KMAF/MAF METAR and TAF weather

Enter ICAO airport designator
Station Type Date Time Source
KMAF METAR 2018/12/12 12:53 UTC NOAA

KMAF 121253Z 20007KT 10SM CLR 07/06 A2998 RMK AO2 SLP136 T00720056


Station Type Date Time Source
KMAF Decoded METAR 2018/12/12 12:53 UTC NOAA

MIDLAND INTERNATIONAL AIRPORT , TX, United States (KMAF) 31-56N 102-12W 872M
Dec 12, 2018 - 07:53 AM EST / 2018.12.12 1253 UTC
Wind: from the SSW (200 degrees) at 8 MPH (7 KT):0
Visibility: 10 mile(s):0
Sky conditions: clear
Temperature: 45.0 F (7.2 C)
Dew Point: 42.1 F (5.6 C)
Relative Humidity: 89%
Pressure (altimeter): 29.98 in. Hg (1015 hPa)
ob: KMAF 121253Z 20007KT 10SM CLR 07/06 A2998 RMK AO2 SLP136 T00720056
cycle: 13

Station Type Date Time Source
KMAF TAF 2018/12/12 12:22 UTC NOAA

TAF KMAF 121120Z 1212/1312 25008KT P6SM BKN250
FM130000 24012KT P6SM BKN170
FM130900 31021G31KT P6SM FEW200


Example: see airport list